Time;durP1;ratioP1;P1;durP2;ratioP2;P2;SDS_P1;SDS_P2;PMS_P1;PMS_P2;Temp;Humidity;BMP_temperature;BMP_pressure;BME280_temperature;BME280_humidity;BME280_pressure;Samples;Min_cycle;Max_cycle;Signal;HPM_P1;HPM_P2
2023/01/09 00:01:44;;;;;;;0.00;0.00;;;7.00;99.90;;;;;;5080522;28;20048;-90
2023/01/09 00:04:11;;;;;;;0.20;0.20;;;6.90;99.90;;;;;;5080788;28;20039;-90
2023/01/09 00:06:42;;;;;;;0.45;0.20;;;6.90;99.90;;;;;;5080710;28;20056;-90
2023/01/09 00:09:24;;;;;;;0.25;0.20;;;7.00;99.90;;;;;;5082197;28;20048;-90
2023/01/09 00:12:02;;;;;;;0.00;0.00;;;6.30;99.90;;;;;;5050786;28;20043;-90
2023/01/09 00:14:32;;;;;;;0.40;0.13;;;6.40;99.90;;;;;;5080596;28;20051;-91
2023/01/09 00:17:06;;;;;;;0.17;0.17;;;6.30;99.90;;;;;;5081316;28;20086;-90
2023/01/09 00:19:37;;;;;;;0.00;0.00;;;7.00;99.90;;;;;;5080256;28;20044;-90
2023/01/09 00:22:07;;;;;;;0.00;0.00;;;7.00;99.90;;;;;;5080868;28;20044;-90
2023/01/09 00:24:33;;;;;;;0.10;0.10;;;7.10;99.90;;;;;;5097145;28;20047;-90
2023/01/09 00:26:59;;;;;;;0.00;0.00;;;7.10;99.90;;;;;;5080332;28;20047;-90
2023/01/09 00:29:27;;;;;;;0.30;0.23;;;7.10;99.90;;;;;;5080614;28;20043;-90
2023/01/09 00:31:56;;;;;;;0.57;0.20;;;7.10;99.90;;;;;;5080914;28;20047;-89
2023/01/09 00:34:35;;;;;;;0.37;0.30;;;7.00;99.90;;;;;;5079759;28;20054;-89
2023/01/09 00:37:01;;;;;;;0.40;0.25;;;7.10;99.90;;;;;;5063190;28;20048;-89
2023/01/09 00:39:27;;;;;;;0.10;0.10;;;6.90;99.90;;;;;;5079489;28;20051;-93
2023/01/09 00:41:57;;;;;;;0.20;0.20;;;7.00;99.90;;;;;;5063336;28;20078;-88
2023/01/09 00:44:28;;;;;;;0.40;0.10;;;6.90;99.90;;;;;;5079615;28;20044;-88
2023/01/09 00:47:06;;;;;;;0.30;0.30;;;6.10;99.90;;;;;;5080225;28;20139;-89
2023/01/09 00:49:35;;;;;;;0.20;0.20;;;6.90;99.90;;;;;;5079563;28;20397;-88
2023/01/09 00:52:05;;;;;;;0.20;0.20;;;6.70;99.90;;;;;;5079423;28;20043;-88
2023/01/09 00:54:31;;;;;;;0.15;0.15;;;6.70;99.90;;;;;;5079323;28;20500;-88
2023/01/09 00:57:00;;;;;;;0.45;0.25;;;6.70;99.90;;;;;;5079519;28;20043;-88
2023/01/09 00:59:27;;;;;;;0.30;0.30;;;6.70;99.90;;;;;;5078782;28;20050;-89
2023/01/09 01:01:55;;;;;;;0.10;0.10;;;6.60;99.90;;;;;;5078805;28;20048;-88
2023/01/09 01:10:00;;;;;;;0.00;0.00;;;6.40;99.90;;;;;;5096163;28;20048;-89
2023/01/09 01:12:28;;;;;;;0.30;0.30;;;6.50;99.90;;;;;;5079172;28;20054;-89
2023/01/09 01:15:03;;;;;;;0.00;0.00;;;6.30;99.90;;;;;;5078711;28;20044;-89
2023/01/09 01:17:36;;;;;;;0.00;0.00;;;6.40;99.90;;;;;;5079130;28;20090;-89
2023/01/09 01:20:12;;;;;;;0.10;0.10;;;6.00;99.90;;;;;;5079488;28;20048;-89
2023/01/09 01:22:41;;;;;;;0.10;0.10;;;6.20;99.90;;;;;;5078818;28;20039;-89
2023/01/09 01:25:13;;;;;;;0.00;0.00;;;6.30;99.90;;;;;;5078789;28;20048;-89
2023/01/09 01:27:40;;;;;;;0.00;0.00;;;5.60;99.90;;;;;;5078611;28;20090;-89
2023/01/09 01:30:12;;;;;;;0.00;0.00;;;6.20;99.90;;;;;;5095372;28;20493;-89
2023/01/09 01:32:40;;;;;;;0.00;0.00;;;6.10;99.90;;;;;;5095677;28;20450;-89
2023/01/09 01:35:10;;;;;;;0.40;0.10;;;5.70;99.90;;;;;;5079011;28;20044;-89
2023/01/09 01:37:39;;;;;;;0.00;0.00;;;6.20;99.90;;;;;;5095515;28;20075;-90
2023/01/09 01:40:08;;;;;;;0.00;0.00;;;6.10;99.90;;;;;;5095880;28;20508;-89
2023/01/09 01:42:46;;;;;;;0.00;0.00;;;5.90;99.90;;;;;;5095835;28;20048;-88
2023/01/09 01:45:33;;;;;;;;;;;;;;;;;;;;;
2023/01/09 01:47:59;;;;;;;0.30;0.30;;;6.00;99.90;;;;;;5095015;28;20047;-89
2023/01/09 01:50:38;;;;;;;0.00;0.00;;;5.60;99.90;;;;;;5078499;28;20289;-89
2023/01/09 01:53:25;;;;;;;0.03;0.03;;;5.90;99.90;;;;;;5078468;28;20051;-89
2023/01/09 01:56:14;;;;;;;0.15;0.10;;;5.80;99.90;;;;;;5078345;28;20046;-89
2023/01/09 01:58:47;;;;;;;0.08;0.08;;;5.80;99.90;;;;;;5094755;28;20065;-89
2023/01/09 02:01:14;;;;;;;0.10;0.10;;;5.90;99.90;;;;;;5078793;28;20140;-89
2023/01/09 02:03:45;;;;;;;0.60;0.15;;;5.90;99.90;;;;;;5078412;28;20043;-89
2023/01/09 02:06:12;;;;;;;0.00;0.00;;;5.80;99.90;;;;;;5078753;28;20438;-89
2023/01/09 02:08:43;;;;;;;;;;;5.90;99.90;;;;;;5062062;28;20047;-93
2023/01/09 02:11:27;;;;;;;0.10;0.10;;;5.80;99.90;;;;;;5078300;28;19923;-89
2023/01/09 02:13:53;;;;;;;0.00;0.00;;;5.80;99.90;;;;;;5078049;28;20043;-89
2023/01/09 02:16:57;;;;;;;0.00;0.00;;;5.90;99.90;;;;;;5078787;28;20051;-89
2023/01/09 02:19:23;;;;;;;0.00;0.00;;;5.90;99.90;;;;;;4997507;28;20049;-89
2023/01/09 02:21:58;;;;;;;0.00;0.00;;;6.10;99.90;;;;;;5060884;28;20629;-89
2023/01/09 02:24:50;;;;;;;0.32;0.10;;;6.00;99.90;;;;;;5078150;28;20036;-89
2023/01/09 02:28:16;;;;;;;0.30;0.20;;;5.80;99.90;;;;;;5078305;28;20043;-90
2023/01/09 02:30:57;;;;;;;0.10;0.10;;;5.80;99.90;;;;;;5006884;28;20060;-90
2023/01/09 02:33:41;;;;;;;0.60;0.57;;;5.90;99.90;;;;;;5094727;28;20047;-89
2023/01/09 02:36:14;;;;;;;0.08;0.08;;;5.80;99.90;;;;;;5078255;28;20127;-89
2023/01/09 02:38:50;;;;;;;0.10;0.10;;;5.80;99.90;;;;;;5094947;28;20044;-89
2023/01/09 02:41:29;;;;;;;0.00;0.00;;;5.80;99.90;;;;;;5078677;28;20108;-89
2023/01/09 02:44:19;;;;;;;0.00;0.00;;;5.70;99.90;;;;;;5077777;28;20043;-89
2023/01/09 02:47:07;;;;;;;0.00;0.00;;;5.80;99.90;;;;;;5077722;28;20108;-90
2023/01/09 02:49:37;;;;;;;;;;;5.80;99.90;;;;;;5078563;28;20044;-90
2023/01/09 02:52:21;;;;;;;0.30;0.17;;;4.60;99.90;;;;;;5077748;28;19931;-89
2023/01/09 02:54:59;;;;;;;0.20;0.20;;;5.70;99.90;;;;;;5078175;28;20051;-90
2023/01/09 02:57:27;;;;;;;0.15;0.15;;;5.70;99.90;;;;;;5079893;28;20396;-90
2023/01/09 03:00:09;;;;;;;0.20;0.20;;;5.70;99.90;;;;;;5081106;28;20477;-89
2023/01/09 03:02:57;;;;;;;0.20;0.20;;;5.70;99.90;;;;;;5081715;28;20413;-89
2023/01/09 03:05:59;;;;;;;0.10;0.10;;;5.30;99.90;;;;;;5081536;28;20055;-90
2023/01/09 03:08:43;;;;;;;0.10;0.10;;;5.50;99.90;;;;;;5081201;28;20051;-90
2023/01/09 03:11:39;;;;;;;0.10;0.10;;;5.60;99.90;;;;;;5081512;28;20069;-90
2023/01/09 03:14:14;;;;;;;0.00;0.00;;;5.50;99.90;;;;;;5081455;28;20628;-90
2023/01/09 03:16:47;;;;;;;0.10;0.10;;;5.50;99.90;;;;;;5081601;28;20039;-90
2023/01/09 03:19:19;;;;;;;0.00;0.00;;;5.50;99.90;;;;;;5081379;28;20043;-90
2023/01/09 03:21:57;;;;;;;0.10;0.10;;;5.30;99.90;;;;;;5081187;28;20048;-90
2023/01/09 03:24:32;;;;;;;0.73;0.30;;;5.40;99.90;;;;;;5080811;28;20508;-90
2023/01/09 03:26:58;;;;;;;0.10;0.10;;;5.40;99.90;;;;;;5081245;28;20120;-89
2023/01/09 03:29:29;;;;;;;0.00;0.00;;;4.30;99.90;;;;;;5064852;28;20043;-90
2023/01/09 03:31:57;;;;;;;0.77;0.20;;;5.20;99.90;;;;;;5080983;28;20120;-89
2023/01/09 03:34:25;;;;;;;0.00;0.00;;;5.40;99.90;;;;;;5097835;28;20059;-90
2023/01/09 03:36:54;;;;;;;1.65;0.30;;;5.30;99.90;;;;;;5080378;28;20493;-90
2023/01/09 03:39:29;;;;;;;0.00;0.00;;;5.60;99.90;;;;;;5097531;28;20551;-89
2023/01/09 03:41:58;;;;;;;0.20;0.20;;;5.20;99.90;;;;;;5064932;28;20047;-90
2023/01/09 03:44:24;;;;;;;0.10;0.10;;;5.20;99.90;;;;;;5080924;28;20047;-89
2023/01/09 03:46:50;;;;;;;0.20;0.20;;;5.20;99.90;;;;;;5097420;28;20481;-93
2023/01/09 03:52:26;;;;;;;0.10;0.10;;;5.10;99.90;;;;;;5097337;28;20468;-90
2023/01/09 03:54:55;;;;;;;;;;;5.00;99.90;;;;;;5097934;28;20043;-90
2023/01/09 03:57:31;;;;;;;0.65;0.20;;;5.00;99.90;;;;;;5080668;28;19919;-90
2023/01/09 04:00:14;;;;;;;0.38;0.32;;;5.00;99.90;;;;;;5096910;28;20502;-90
2023/01/09 04:02:41;;;;;;;0.10;0.10;;;5.00;99.90;;;;;;5097674;28;20134;-89
2023/01/09 04:05:09;;;;;;;0.00;0.00;;;4.40;99.90;;;;;;5079897;28;20039;-90
2023/01/09 04:07:40;;;;;;;0.30;0.30;;;4.90;99.90;;;;;;5063841;28;20130;-90
2023/01/09 04:10:07;;;;;;;0.28;0.28;;;4.90;99.90;;;;;;5079663;28;20051;-90
2023/01/09 04:12:33;;;;;;;1.75;0.60;;;4.90;99.90;;;;;;5097573;28;20055;-90
2023/01/09 04:15:01;;;;;;;0.30;0.30;;;4.00;99.90;;;;;;5097094;28;20056;-90
2023/01/09 04:17:26;;;;;;;0.10;0.10;;;4.40;99.90;;;;;;5080450;28;20055;-90
2023/01/09 04:19:55;;;;;;;0.30;0.13;;;4.80;99.90;;;;;;5080291;28;20425;-89
2023/01/09 04:22:24;;;;;;;0.13;0.10;;;4.80;99.90;;;;;;5080185;28;20096;-90
2023/01/09 04:24:50;;;;;;;1.23;0.40;;;4.80;99.90;;;;;;5079790;28;20044;-89
2023/01/09 04:27:19;;;;;;;1.40;0.57;;;4.80;99.90;;;;;;5079832;28;20492;-90
2023/01/09 04:29:45;;;;;;;0.13;0.13;;;4.70;99.90;;;;;;5080251;28;20108;-89
2023/01/09 04:32:10;;;;;;;0.10;0.10;;;4.70;99.90;;;;;;5079328;28;20039;-89
2023/01/09 04:34:38;;;;;;;0.77;0.53;;;4.70;99.90;;;;;;5079947;28;20047;-90
2023/01/09 04:37:06;;;;;;;0.05;0.05;;;4.90;99.90;;;;;;5079578;28;20047;-90
2023/01/09 04:39:37;;;;;;;0.50;0.28;;;4.70;99.90;;;;;;5063606;28;20393;-90
2023/01/09 04:42:05;;;;;;;0.20;0.10;;;4.60;99.90;;;;;;5079717;28;20039;-89
2023/01/09 04:44:41;;;;;;;0.30;0.30;;;4.80;99.90;;;;;;5079492;28;20040;-89
2023/01/09 04:47:19;;;;;;;;;;;;;;;;;;;;;
2023/01/09 04:49:45;;;;;;;0.17;0.10;;;4.70;99.90;;;;;;5081530;28;20058;-90
2023/01/09 04:52:11;;;;;;;0.20;0.07;;;4.60;99.90;;;;;;5079522;28;20043;-90
2023/01/09 04:54:38;;;;;;;0.63;0.37;;;4.70;99.90;;;;;;5063196;28;20047;-89
2023/01/09 04:57:04;;;;;;;;;;;4.60;99.90;;;;;;5063192;28;20047;-90
2023/01/09 04:59:35;;;;;;;1.25;0.30;;;3.80;99.90;;;;;;5079207;28;20284;-90
2023/01/09 05:02:04;;;;;;;0.05;0.00;;;5.80;99.90;;;;;;5079025;28;20134;-90
2023/01/09 05:04:42;;;;;;;;;;;;;;;;;;;;;
2023/01/09 05:07:10;;;;;;;0.40;0.30;;;4.60;99.90;;;;;;5080587;28;20043;-90
2023/01/09 05:09:40;;;;;;;0.30;0.20;;;4.60;99.90;;;;;;5079145;28;20135;-89
2023/01/09 05:12:09;;;;;;;0.82;0.77;;;4.60;99.90;;;;;;5079553;28;20075;-90
2023/01/09 05:14:37;;;;;;;0.20;0.20;;;4.50;99.90;;;;;;5062240;28;20052;-89
2023/01/09 05:17:05;;;;;;;2.63;0.40;;;3.90;99.90;;;;;;5095562;28;20044;-90
2023/01/09 05:19:33;;;;;;;0.30;0.28;;;4.60;99.90;;;;;;5095994;28;20089;-89
2023/01/09 05:22:22;;;;;;;2.53;1.17;;;4.70;99.90;;;;;;5078234;28;20047;-89
2023/01/09 05:24:56;;;;;;;0.85;0.63;;;4.70;99.90;;;;;;5078992;28;20523;-89
2023/01/09 05:27:29;;;;;;;2.47;0.43;;;4.70;99.90;;;;;;5095647;28;20043;-89
2023/01/09 05:29:55;;;;;;;1.08;0.82;;;4.70;99.90;;;;;;5096190;28;20086;-90
2023/01/09 05:32:31;;;;;;;0.73;0.10;;;4.70;99.90;;;;;;5062109;28;20087;-90
2023/01/09 05:34:56;;;;;;;0.32;0.28;;;3.60;99.90;;;;;;5063287;28;20047;-89
2023/01/09 05:37:22;;;;;;;1.10;0.80;;;4.80;99.90;;;;;;5078590;28;20051;-89
2023/01/09 05:39:55;;;;;;;4.07;0.65;;;4.90;99.90;;;;;;5078969;28;20052;-90
2023/01/09 05:42:33;;;;;;;;;;;;;;;;;;;;;
2023/01/09 05:44:59;;;;;;;1.17;0.55;;;4.90;99.90;;;;;;5095539;28;20039;-90
2023/01/09 05:47:25;;;;;;;1.10;0.43;;;5.00;99.90;;;;;;5078307;28;20047;-89
2023/01/09 05:49:55;;;;;;;0.23;0.23;;;4.80;99.90;;;;;;5078870;28;20052;-89
2023/01/09 05:52:24;;;;;;;1.38;0.40;;;5.10;99.90;;;;;;5078826;28;20047;-90
2023/01/09 05:54:50;;;;;;;0.50;0.40;;;4.90;99.90;;;;;;5078922;28;20036;-89
2023/01/09 05:57:16;;;;;;;2.73;0.77;;;4.80;99.90;;;;;;5078149;28;20112;-90
2023/01/09 05:59:45;;;;;;;0.90;0.20;;;4.80;99.90;;;;;;5095042;28;20086;-90
2023/01/09 06:02:11;;;;;;;0.52;0.43;;;4.20;99.90;;;;;;5078456;28;20413;-90
2023/01/09 06:04:40;;;;;;;1.20;0.70;;;4.90;99.90;;;;;;5078262;28;20046;-90
2023/01/09 06:07:11;;;;;;;1.02;0.50;;;4.80;99.90;;;;;;5078544;28;20101;-93
2023/01/09 06:09:39;;;;;;;3.35;0.50;;;4.90;99.90;;;;;;5062389;28;20044;-89
2023/01/09 06:12:07;;;;;;;1.65;0.60;;;4.90;99.90;;;;;;5061410;28;20035;-89
2023/01/09 06:14:35;;;;;;;1.05;0.52;;;4.30;99.90;;;;;;5061876;28;20090;-89
2023/01/09 06:17:04;;;;;;;1.05;0.65;;;5.00;99.90;;;;;;5078715;28;20055;-90
2023/01/09 06:19:33;;;;;;;1.50;0.45;;;4.90;99.90;;;;;;5061278;28;20131;-89
2023/01/09 06:22:02;;;;;;;1.17;0.82;;;5.00;99.90;;;;;;5078396;28;20043;-89
2023/01/09 06:24:35;;;;;;;1.35;0.45;;;4.50;99.90;;;;;;5078078;28;20078;-89
2023/01/09 06:27:01;;;;;;;0.30;0.30;;;4.90;99.90;;;;;;5078589;28;20047;-90
2023/01/09 06:29:27;;;;;;;1.03;0.67;;;5.00;99.90;;;;;;5077713;28;20406;-90
2023/01/09 06:31:55;;;;;;;2.37;0.60;;;5.00;99.90;;;;;;5078928;28;20054;-89
2023/01/09 06:34:28;;;;;;;0.32;0.32;;;5.00;99.90;;;;;;5065462;28;20078;-89
2023/01/09 06:36:57;;;;;;;1.13;0.30;;;4.80;99.90;;;;;;5082378;28;20090;-90
2023/01/09 06:39:32;;;;;;;;;;;;;;;;;;;;;
2023/01/09 06:41:59;;;;;;;1.02;0.85;;;4.80;99.90;;;;;;5099130;28;20051;-90
2023/01/09 06:44:35;;;;;;;0.57;0.20;;;4.80;99.90;;;;;;5081354;28;20486;-90
2023/01/09 06:47:06;;;;;;;0.43;0.40;;;4.80;99.90;;;;;;5082852;28;20443;-90
2023/01/09 06:49:35;;;;;;;1.23;0.63;;;4.80;99.90;;;;;;5081927;28;20466;-89
2023/01/09 06:52:06;;;;;;;0.32;0.30;;;5.00;99.90;;;;;;5081824;28;20493;-90
2023/01/09 06:54:40;;;;;;;2.15;0.60;;;4.80;99.90;;;;;;5081907;28;20044;-90
2023/01/09 06:57:06;;;;;;;3.40;1.15;;;4.30;99.90;;;;;;5081998;28;20043;-90
2023/01/09 06:59:32;;;;;;;0.60;0.57;;;4.80;99.90;;;;;;5081212;28;20447;-90
2023/01/09 07:02:00;;;;;;;1.70;0.90;;;4.80;99.90;;;;;;5081874;28;20055;-90
2023/01/09 07:04:33;;;;;;;3.08;0.88;;;4.80;99.90;;;;;;5065212;28;20071;-90
2023/01/09 07:07:02;;;;;;;1.33;0.70;;;4.80;99.90;;;;;;5081706;28;20051;-90
2023/01/09 07:09:31;;;;;;;0.45;0.45;;;4.80;99.90;;;;;;5080995;28;20040;-90
2023/01/09 07:12:02;;;;;;;0.45;0.30;;;5.20;99.90;;;;;;5081778;28;20056;-90
2023/01/09 07:14:29;;;;;;;0.40;0.30;;;3.90;99.90;;;;;;5067242;28;20047;-89
2023/01/09 07:16:58;;;;;;;0.95;0.50;;;4.70;99.90;;;;;;5064853;28;20066;-90
2023/01/09 07:19:29;;;;;;;1.48;0.82;;;3.90;99.90;;;;;;5081582;28;20516;-90
2023/01/09 07:21:58;;;;;;;0.50;0.50;;;5.20;99.90;;;;;;5098228;28;20043;-90
2023/01/09 07:24:24;;;;;;;0.67;0.40;;;4.60;99.90;;;;;;5064267;28;20043;-90
2023/01/09 07:26:59;;;;;;;1.60;0.43;;;4.70;99.90;;;;;;5081478;28;20046;-90
2023/01/09 07:29:30;;;;;;;1.05;0.20;;;3.50;99.90;;;;;;5081440;28;20054;-90
2023/01/09 07:31:59;;;;;;;0.20;0.20;;;4.50;99.90;;;;;;5081490;28;20047;-90
2023/01/09 07:34:34;;;;;;;0.85;0.13;;;5.00;99.90;;;;;;5081785;28;20050;-91
2023/01/09 07:45:40;;;;;;;2.28;0.43;;;4.50;99.90;;;;;;5051637;28;20049;-91
2023/01/09 07:52:41;;;;;;;0.57;0.30;;;4.60;99.90;;;;;;5084043;28;20089;-91
2023/01/09 08:03:20;;;;;;;0.10;0.00;;;4.60;99.90;;;;;;5106178;28;20413;-91
2023/01/09 08:14:51;;;;;;;0.20;0.20;;;4.50;99.90;;;;;;5107508;28;20160;-91
2023/01/09 08:25:13;;;;;;;0.10;0.10;;;4.60;99.90;;;;;;5105776;28;20070;-90
2023/01/09 08:31:57;;;;;;;0.03;0.03;;;4.70;99.90;;;;;;5115734;28;20034;-91
2023/01/09 08:38:34;;;;;;;0.95;0.20;;;4.80;99.90;;;;;;5115601;28;20111;-91
2023/01/09 09:07:25;;;;;;;0.80;0.50;;;5.00;99.90;;;;;;5113713;28;20047;-91
2023/01/09 09:59:50;;;;;;;0.03;0.03;;;5.60;99.90;;;;;;5093952;28;20043;-92
2023/01/09 10:18:40;;;;;;;0.10;0.10;;;6.10;99.90;;;;;;5093536;28;20589;-92
2023/01/09 11:21:29;;;;;;;0.00;0.00;;;6.30;99.90;;;;;;5097903;28;20564;-91
2023/01/09 12:14:23;;;;;;;0.30;0.13;;;6.30;99.90;;;;;;5114865;28;20035;-91
2023/01/09 13:12:20;;;;;;;0.15;0.15;;;7.90;99.90;;;;;;5094932;28;20081;-92
2023/01/09 13:19:53;;;;;;;0.50;0.40;;;6.60;99.90;;;;;;5094654;28;20036;-92
2023/01/09 13:22:22;;;;;;;1.55;0.63;;;6.60;99.90;;;;;;5061004;28;20055;-93
2023/01/09 13:32:34;;;;;;;0.98;0.40;;;6.60;99.90;;;;;;5094867;28;20109;-91
2023/01/09 13:48:12;;;;;;;0.75;0.45;;;6.50;99.90;;;;;;5031931;28;20064;-92
2023/01/09 13:50:57;;;;;;;0.38;0.38;;;6.60;99.90;;;;;;5016398;28;20049;-92
2023/01/09 13:53:59;;;;;;;0.40;0.40;;;6.60;99.90;;;;;;5016310;28;20530;-92
2023/01/09 13:56:25;;;;;;;0.20;0.20;;;6.70;99.90;;;;;;4983443;28;20061;-91
2023/01/09 13:59:43;;;;;;;;;;;;;;;;;;;;;
2023/01/09 14:06:37;;;;;;;1.20;0.35;;;6.70;99.90;;;;;;5026867;28;20155;-91
2023/01/09 14:09:41;;;;;;;0.38;0.20;;;6.70;99.90;;;;;;5032953;28;20044;-92
2023/01/09 14:12:52;;;;;;;0.80;0.65;;;7.90;99.90;;;;;;5053865;28;20064;-91
2023/01/09 14:15:40;;;;;;;0.73;0.25;;;6.80;99.90;;;;;;5035758;28;20515;-91
2023/01/09 14:47:30;;;;;;;0.25;0.20;;;6.80;99.90;;;;;;5071134;28;20073;-91
2023/01/09 14:50:34;;;;;;;0.52;0.30;;;6.90;99.90;;;;;;5037744;28;20071;-91
2023/01/09 14:56:46;;;;;;;2.13;0.67;;;6.90;99.90;;;;;;5074657;28;20067;-90
2023/01/09 14:59:23;;;;;;;1.02;0.30;;;8.00;99.90;;;;;;5025225;28;20799;-91
2023/01/09 15:02:21;;;;;;;0.38;0.32;;;6.90;99.90;;;;;;5035467;28;20144;-91
2023/01/09 15:08:28;;;;;;;0.13;0.13;;;6.80;99.90;;;;;;5034796;28;20167;-90
2023/01/09 15:10:56;;;;;;;0.35;0.20;;;6.80;99.90;;;;;;5000748;28;20052;-90
2023/01/09 15:16:32;;;;;;;1.88;1.08;;;7.70;99.90;;;;;;5112081;27;20047;-91
2023/01/09 15:19:30;;;;;;;;;;;;;;;;;;;;;
2023/01/09 15:25:56;;;;;;;0.13;0.13;;;7.40;99.90;;;;;;5118949;27;20051;-90
2023/01/09 15:28:26;;;;;;;0.25;0.20;;;6.80;99.90;;;;;;5102179;27;20126;-91
2023/01/09 15:31:03;;;;;;;0.28;0.28;;;6.80;99.90;;;;;;5102223;27;20051;-91
2023/01/09 15:33:40;;;;;;;0.65;0.43;;;7.10;99.90;;;;;;5102466;27;20450;-91
2023/01/09 15:39:47;;;;;;;0.30;0.13;;;6.90;99.90;;;;;;5137367;27;20400;-90
2023/01/09 15:45:35;;;;;;;0.20;0.10;;;6.80;99.90;;;;;;5114742;28;20305;-88
2023/01/09 15:48:22;;;;;;;0.10;0.10;;;6.80;99.90;;;;;;5114951;28;20147;-88
2023/01/09 15:50:51;;;;;;;0.10;0.10;;;6.60;99.90;;;;;;5114501;28;20044;-88
2023/01/09 15:53:23;;;;;;;0.10;0.10;;;6.70;99.90;;;;;;5097715;28;20058;-88
2023/01/09 15:56:22;;;;;;;0.10;0.10;;;6.40;99.90;;;;;;5098071;28;20044;-91
2023/01/09 15:58:56;;;;;;;0.00;0.00;;;6.40;99.90;;;;;;5114674;28;20050;-89
2023/01/09 16:01:35;;;;;;;0.10;0.10;;;6.40;99.90;;;;;;5097504;28;20444;-89
2023/01/09 16:04:09;;;;;;;0.00;0.00;;;6.20;99.90;;;;;;5097385;28;20040;-88
2023/01/09 16:06:57;;;;;;;0.10;0.10;;;6.10;99.90;;;;;;5096842;28;20079;-89
2023/01/09 16:09:30;;;;;;;0.08;0.08;;;6.10;99.90;;;;;;5096651;28;20059;-89
2023/01/09 16:12:03;;;;;;;0.35;0.15;;;6.00;99.90;;;;;;5097507;28;20051;-89
2023/01/09 16:14:37;;;;;;;0.00;0.00;;;6.00;99.90;;;;;;5097042;28;20130;-90
2023/01/09 16:17:52;;;;;;;0.00;0.00;;;6.00;99.90;;;;;;5114187;28;20050;-89
2023/01/09 16:20:24;;;;;;;0.20;0.10;;;6.30;99.90;;;;;;5093829;28;20055;-89
2023/01/09 16:23:01;;;;;;;0.30;0.20;;;5.90;99.90;;;;;;5113735;28;20055;-89
2023/01/09 16:25:38;;;;;;;0.28;0.20;;;5.90;99.90;;;;;;5064974;28;20047;-90
2023/01/09 16:28:29;;;;;;;0.20;0.20;;;5.80;99.90;;;;;;5096911;28;20047;-89
2023/01/09 16:31:03;;;;;;;0.00;0.00;;;5.80;99.90;;;;;;5096878;28;20044;-89
2023/01/09 16:33:33;;;;;;;0.20;0.15;;;5.90;99.90;;;;;;5096437;28;20100;-89
2023/01/09 16:36:08;;;;;;;0.43;0.35;;;5.90;99.90;;;;;;5096677;28;20521;-89
2023/01/09 16:38:34;;;;;;;0.13;0.13;;;5.80;99.90;;;;;;5096613;28;20490;-89
2023/01/09 16:43:59;;;;;;;0.13;0.13;;;6.30;99.90;;;;;;5113737;28;20083;-89
2023/01/09 16:46:27;;;;;;;0.22;0.22;;;5.90;99.90;;;;;;5096807;28;20073;-89
2023/01/09 16:48:52;;;;;;;0.28;0.28;;;6.10;99.90;;;;;;5096087;28;20086;-89
2023/01/09 16:51:22;;;;;;;0.00;0.00;;;5.90;99.90;;;;;;5096416;28;20075;-89
2023/01/09 16:53:50;;;;;;;0.05;0.05;;;6.00;99.90;;;;;;5096537;28;20043;-89
2023/01/09 16:56:28;;;;;;;0.87;0.30;;;6.20;99.90;;;;;;5096498;28;20053;-89
2023/01/09 16:59:07;;;;;;;0.15;0.15;;;6.10;99.90;;;;;;5096098;28;20077;-89
2023/01/09 17:01:35;;;;;;;0.10;0.00;;;6.10;99.90;;;;;;5095830;28;20050;-90
2023/01/09 17:04:07;;;;;;;0.00;0.00;;;6.20;99.90;;;;;;5095948;28;20043;-89
2023/01/09 17:06:33;;;;;;;0.30;0.22;;;6.20;99.90;;;;;;5096180;28;20044;-90
2023/01/09 17:09:22;;;;;;;0.40;0.20;;;6.10;99.90;;;;;;5096312;28;20457;-89
2023/01/09 17:11:48;;;;;;;0.73;0.30;;;5.00;99.90;;;;;;5113040;28;20049;-89
2023/01/09 17:14:16;;;;;;;0.20;0.15;;;6.10;99.90;;;;;;5096024;28;20048;-90
2023/01/09 17:16:44;;;;;;;0.55;0.20;;;6.10;99.90;;;;;;5095850;28;20135;-90
2023/01/09 17:19:18;;;;;;;0.55;0.50;;;6.20;99.90;;;;;;5095860;28;20052;-89
2023/01/09 17:21:46;;;;;;;0.10;0.10;;;6.10;99.90;;;;;;5112854;28;20047;-89
2023/01/09 17:29:45;;;;;;;0.00;0.00;;;6.00;99.90;;;;;;5098585;28;20051;-90
2023/01/09 17:32:17;;;;;;;0.03;0.03;;;6.00;99.90;;;;;;5096349;28;20051;-89
2023/01/09 17:34:43;;;;;;;0.55;0.10;;;6.40;99.90;;;;;;5095464;28;20048;-89
2023/01/09 17:37:15;;;;;;;0.40;0.40;;;5.90;99.90;;;;;;5095551;28;20051;-90
2023/01/09 17:39:42;;;;;;;0.22;0.17;;;5.90;99.90;;;;;;5095617;28;20444;-89
2023/01/09 17:42:11;;;;;;;0.17;0.17;;;5.80;99.90;;;;;;5112376;28;20056;-89
2023/01/09 17:44:43;;;;;;;2.63;0.38;;;5.70;99.90;;;;;;5095806;28;20050;-90
2023/01/09 17:47:17;;;;;;;0.30;0.20;;;5.80;99.90;;;;;;5079073;28;20493;-90
2023/01/09 17:49:46;;;;;;;0.13;0.13;;;5.80;99.90;;;;;;5112096;28;20047;-90
2023/01/09 17:52:14;;;;;;;0.45;0.30;;;5.70;99.90;;;;;;5095719;28;20085;-89
2023/01/09 17:54:40;;;;;;;0.20;0.20;;;6.10;99.90;;;;;;5095811;28;20047;-90
2023/01/09 17:57:06;;;;;;;0.30;0.20;;;5.80;99.90;;;;;;5095601;28;20130;-89
2023/01/09 17:59:35;;;;;;;0.08;0.08;;;5.60;99.90;;;;;;5112461;28;20093;-89
2023/01/09 18:02:02;;;;;;;0.13;0.10;;;5.50;99.90;;;;;;5111862;28;20039;-89
2023/01/09 18:04:37;;;;;;;0.10;0.00;;;5.60;99.90;;;;;;5094949;28;20040;-89
2023/01/09 18:07:13;;;;;;;0.15;0.15;;;5.60;99.90;;;;;;5078956;28;20520;-90
2023/01/09 18:09:41;;;;;;;0.10;0.10;;;4.80;99.90;;;;;;5080078;28;20052;-89
2023/01/09 18:12:10;;;;;;;0.45;0.30;;;5.40;99.90;;;;;;5094964;28;20051;-89
2023/01/09 18:14:44;;;;;;;0.10;0.10;;;5.50;99.90;;;;;;5094879;28;20490;-91
2023/01/09 18:17:14;;;;;;;0.30;0.30;;;5.50;99.90;;;;;;5096885;28;20099;-89
2023/01/09 18:19:45;;;;;;;0.32;0.32;;;5.40;99.90;;;;;;5079676;28;20070;-90
2023/01/09 18:22:16;;;;;;;0.28;0.20;;;5.40;99.90;;;;;;5112122;28;20043;-89
2023/01/09 18:24:44;;;;;;;0.20;0.10;;;5.30;99.90;;;;;;5078598;28;20047;-95
2023/01/09 18:27:10;;;;;;;1.65;0.20;;;5.40;99.90;;;;;;5112256;28;20130;-89
2023/01/09 18:29:48;;;;;;;;;;;;;;;;;;;;;
2023/01/09 18:32:24;;;;;;;;;;;;;;;;;;;;;
2023/01/09 18:34:50;;;;;;;0.20;0.20;;;4.90;99.90;;;;;;5116257;28;20421;-90
2023/01/09 18:37:18;;;;;;;0.10;0.10;;;5.10;99.90;;;;;;5099388;28;20044;-89
2023/01/09 18:39:44;;;;;;;0.00;0.00;;;5.20;99.90;;;;;;5098930;28;20079;-96
2023/01/09 18:42:22;;;;;;;0.37;0.30;;;5.20;99.90;;;;;;5082495;28;20054;-89
2023/01/09 18:44:48;;;;;;;0.47;0.17;;;5.10;99.90;;;;;;5099012;28;20048;-90
2023/01/09 18:47:21;;;;;;;0.43;0.43;;;5.00;99.90;;;;;;5116038;28;20070;-89
2023/01/09 18:49:50;;;;;;;0.15;0.15;;;5.10;99.90;;;;;;5066467;28;20374;-90
2023/01/09 18:52:30;;;;;;;0.65;0.20;;;5.00;99.90;;;;;;5082375;28;20577;-89
2023/01/09 18:54:58;;;;;;;1.75;0.17;;;4.90;99.90;;;;;;5099029;28;20443;-89
2023/01/09 18:57:30;;;;;;;0.30;0.20;;;4.90;99.90;;;;;;5099204;28;20051;-89
2023/01/09 18:59:56;;;;;;;0.20;0.20;;;4.90;99.90;;;;;;5098591;28;20048;-90
2023/01/09 19:02:28;;;;;;;0.30;0.30;;;5.00;99.90;;;;;;5081759;28;20054;-89
2023/01/09 19:04:57;;;;;;;0.00;0.00;;;4.80;99.90;;;;;;5098202;28;20089;-90
2023/01/09 19:07:36;;;;;;;0.95;0.73;;;4.80;99.90;;;;;;5098565;28;20472;-89
2023/01/09 19:10:04;;;;;;;0.00;0.00;;;4.90;99.90;;;;;;5115437;28;20035;-89
2023/01/09 19:12:30;;;;;;;0.38;0.30;;;4.80;99.90;;;;;;5098340;28;20047;-89
2023/01/09 19:14:59;;;;;;;0.00;0.00;;;4.90;99.90;;;;;;5081939;28;20540;-89
2023/01/09 19:17:25;;;;;;;0.37;0.33;;;4.90;99.90;;;;;;5064870;28;20078;-89
2023/01/09 19:19:54;;;;;;;0.10;0.10;;;4.90;99.90;;;;;;5081349;28;20393;-89
2023/01/09 19:22:20;;;;;;;1.67;0.10;;;5.60;99.90;;;;;;5115318;28;20181;-89
2023/01/09 19:24:48;;;;;;;0.10;0.10;;;5.00;99.90;;;;;;5098074;28;20138;-89
2023/01/09 19:27:19;;;;;;;0.80;0.30;;;5.00;99.90;;;;;;5097816;28;20052;-89
2023/01/09 19:29:52;;;;;;;0.20;0.20;;;5.00;99.90;;;;;;5082087;28;20048;-89
2023/01/09 19:32:18;;;;;;;0.10;0.10;;;5.00;99.90;;;;;;5082915;28;20040;-90
2023/01/09 19:34:44;;;;;;;0.63;0.63;;;4.80;99.90;;;;;;5097833;28;20043;-89
2023/01/09 19:37:12;;;;;;;0.57;0.33;;;4.90;99.90;;;;;;5097652;28;20097;-89
2023/01/09 19:39:45;;;;;;;0.38;0.20;;;4.80;99.90;;;;;;5096745;28;20043;-89
2023/01/09 19:42:20;;;;;;;0.63;0.25;;;4.90;99.90;;;;;;5097204;28;20452;-89
2023/01/09 19:44:45;;;;;;;0.10;0.10;;;4.90;99.90;;;;;;5097897;28;20039;-90
2023/01/09 19:47:13;;;;;;;0.40;0.13;;;4.80;99.90;;;;;;5114653;28;20104;-90
2023/01/09 19:49:39;;;;;;;0.17;0.17;;;4.30;99.90;;;;;;5114602;28;20448;-89
2023/01/09 19:52:07;;;;;;;0.30;0.30;;;4.80;99.90;;;;;;5113990;28;20489;-89
2023/01/09 19:54:35;;;;;;;1.08;0.10;;;4.70;99.90;;;;;;5081110;28;20093;-89
2023/01/09 19:57:03;;;;;;;0.00;0.00;;;4.80;99.90;;;;;;5114184;28;20047;-89
2023/01/09 19:59:29;;;;;;;0.47;0.45;;;4.80;99.90;;;;;;5098205;28;20048;-89
2023/01/09 20:02:10;;;;;;;0.13;0.13;;;4.90;99.90;;;;;;5097659;28;20051;-96
2023/01/09 20:04:35;;;;;;;0.00;0.00;;;4.90;99.90;;;;;;5097182;28;20557;-89
2023/01/09 20:07:03;;;;;;;0.63;0.23;;;4.80;99.90;;;;;;5114196;28;20134;-90
2023/01/09 20:09:29;;;;;;;0.10;0.10;;;4.80;99.90;;;;;;5097084;28;20085;-89
2023/01/09 20:12:00;;;;;;;0.10;0.10;;;3.80;99.90;;;;;;5097449;28;20079;-89
2023/01/09 20:14:35;;;;;;;0.47;0.30;;;4.90;99.90;;;;;;5097193;28;20116;-89
2023/01/09 20:17:03;;;;;;;0.22;0.10;;;4.90;99.90;;;;;;5096603;28;20043;-90
2023/01/09 20:19:31;;;;;;;0.30;0.10;;;4.60;99.90;;;;;;5097353;28;20043;-89